createdAt,value
2022-11-05T00:00:01.904Z,10.18
2022-11-05T00:04:50.333Z,10.18
2022-11-05T00:09:16.026Z,10.15
2022-11-05T00:13:41.276Z,10.08
2022-11-05T00:17:49.588Z,10.02
2022-11-05T00:22:15.079Z,9.94
2022-11-05T00:26:22.558Z,9.78
2022-11-05T00:30:31.874Z,9.62
2022-11-05T00:34:39.327Z,9.49
2022-11-05T00:38:47.542Z,9.37
2022-11-05T00:43:12.525Z,9.28
2022-11-05T00:47:39.582Z,9.23
2022-11-05T00:51:48.102Z,9.18
2022-11-05T00:55:55.515Z,9.15
2022-11-05T01:00:03.212Z,9.10
2022-11-05T01:04:11.598Z,9.07
2022-11-05T01:08:21.285Z,9.05
2022-11-05T01:12:29.134Z,9.02
2022-11-05T01:16:38.041Z,9.00
2022-11-05T01:20:45.985Z,8.97
2022-11-05T01:24:53.987Z,8.94
2022-11-05T01:29:02.044Z,8.90
2022-11-05T01:33:10.428Z,8.89
2022-11-05T01:37:18.456Z,8.89
2022-11-05T01:41:26.409Z,8.88
2022-11-05T01:45:34.180Z,8.89
2022-11-05T01:49:41.861Z,8.90
2022-11-05T01:53:52.295Z,8.92
2022-11-05T01:58:00.945Z,8.92
2022-11-05T02:02:10.206Z,8.90
2022-11-05T02:06:22.098Z,8.89
2022-11-05T02:10:30.777Z,8.91
2022-11-05T02:14:38.182Z,8.93
2022-11-05T02:18:52.616Z,8.96
2022-11-05T02:23:20.307Z,8.97
2022-11-05T02:27:53.985Z,8.96
2022-11-05T02:32:05.713Z,8.93
2022-11-05T02:36:35.644Z,8.93
2022-11-05T02:40:51.559Z,8.94
2022-11-05T02:45:02.164Z,8.95
2022-11-05T02:49:20.009Z,8.97
2022-11-05T02:53:34.347Z,8.97
2022-11-05T02:57:47.348Z,8.94
2022-11-05T03:01:55.931Z,8.93
2022-11-05T03:06:20.415Z,8.94
2022-11-05T03:10:43.467Z,8.97
2022-11-05T03:14:57.837Z,8.99
2022-11-05T03:19:12.175Z,9.00
2022-11-05T03:23:26.112Z,8.97
2022-11-05T03:27:35.840Z,8.99
2022-11-05T03:31:44.924Z,9.00
2022-11-05T03:35:56.195Z,9.04
2022-11-05T03:40:05.732Z,9.06
2022-11-05T03:44:15.711Z,9.06
2022-11-05T03:48:24.035Z,9.04
2022-11-05T03:52:35.260Z,9.05
2022-11-05T03:56:45.338Z,9.07
2022-11-05T04:00:54.028Z,9.09
2022-11-05T04:05:01.639Z,9.12
2022-11-05T04:09:26.606Z,9.12
2022-11-05T04:13:37.390Z,9.10
2022-11-05T04:17:45.169Z,9.10
2022-11-05T04:22:10.426Z,9.10
2022-11-05T04:26:23.751Z,9.11
2022-11-05T04:30:31.483Z,9.09
2022-11-05T04:34:39.013Z,9.06
2022-11-05T04:38:47.073Z,9.05
2022-11-05T04:42:57.094Z,9.02
2022-11-05T04:47:04.650Z,8.98
2022-11-05T04:51:12.867Z,8.94
2022-11-05T04:55:21.459Z,8.91
2022-11-05T04:59:30.465Z,8.87
2022-11-05T05:03:39.456Z,8.82
2022-11-05T05:07:48.007Z,8.80
2022-11-05T05:11:55.560Z,8.81
2022-11-05T05:16:08.821Z,8.82
2022-11-05T05:20:34.549Z,8.84
2022-11-05T05:24:42.471Z,8.86
2022-11-05T05:28:51.470Z,8.86
2022-11-05T05:33:01.023Z,8.85
2022-11-05T05:37:08.819Z,8.88
2022-11-05T05:41:18.371Z,8.90
2022-11-05T05:45:26.541Z,8.91
2022-11-05T05:49:34.332Z,8.93
2022-11-05T05:53:42.030Z,8.93
2022-11-05T05:57:49.206Z,8.92
2022-11-05T06:01:57.493Z,8.90
2022-11-05T06:06:08.187Z,8.91
2022-11-05T06:10:17.264Z,8.92
2022-11-05T06:14:25.528Z,8.94
2022-11-05T06:18:33.090Z,8.93
2022-11-05T06:25:15.682Z,8.94
2022-11-05T06:29:24.332Z,8.94
2022-11-05T06:33:32.577Z,8.96
2022-11-05T06:37:40.748Z,8.98
2022-11-05T06:42:16.747Z,8.98
2022-11-05T06:46:15.872Z,8.97
2022-11-05T06:50:23.615Z,8.98
2022-11-05T06:54:32.590Z,8.98
2022-11-05T06:58:40.243Z,9.02
2022-11-05T07:02:48.928Z,9.05
2022-11-05T07:07:01.076Z,9.04
2022-11-05T07:11:13.363Z,9.03
2022-11-05T07:15:21.243Z,9.02
2022-11-05T07:19:28.723Z,9.03
2022-11-05T07:23:36.310Z,9.06
2022-11-05T07:27:44.766Z,9.10
2022-11-05T07:31:52.193Z,9.14
2022-11-05T07:36:00.934Z,9.15
2022-11-05T07:40:10.995Z,9.16
2022-11-05T07:44:19.123Z,9.18
2022-11-05T07:48:26.859Z,9.21
2022-11-05T07:52:35.550Z,9.27
2022-11-05T07:56:43.436Z,9.33
2022-11-05T08:00:51.123Z,9.37
2022-11-05T08:04:59.528Z,9.38
2022-11-05T08:09:08.579Z,9.41
2022-11-05T08:13:16.909Z,9.47
2022-11-05T08:17:24.513Z,9.52
2022-11-05T08:21:31.823Z,9.58
2022-11-05T08:25:40.161Z,9.62
2022-11-05T08:29:49.123Z,9.65
2022-11-05T08:34:02.173Z,9.71
2022-11-05T08:38:13.732Z,9.77
2022-11-05T08:42:21.981Z,9.83
2022-11-05T08:46:29.994Z,9.85
2022-11-05T08:50:38.565Z,9.89
2022-11-05T08:54:46.182Z,9.91
2022-11-05T08:58:53.497Z,9.96
2022-11-05T09:03:03.965Z,10.01
2022-11-05T09:07:12.162Z,10.08
2022-11-05T09:11:19.739Z,10.14
2022-11-05T09:15:28.239Z,10.15
2022-11-05T09:19:39.833Z,10.16
2022-11-05T09:23:48.540Z,10.19
2022-11-05T09:27:56.758Z,10.26
2022-11-05T09:32:09.981Z,10.32
2022-11-05T09:36:18.248Z,10.36
2022-11-05T09:40:26.802Z,10.40
2022-11-05T09:44:38.394Z,10.41
2022-11-05T09:48:47.716Z,10.41
2022-11-05T09:52:55.351Z,10.46
2022-11-05T09:57:04.929Z,10.51
2022-11-05T10:01:15.984Z,10.56
2022-11-05T10:05:24.374Z,10.61
2022-11-05T10:09:35.640Z,10.63
2022-11-05T10:13:46.180Z,10.64
2022-11-05T10:17:58.273Z,10.70
2022-11-05T10:22:13.445Z,10.76
2022-11-05T10:26:23.442Z,10.81
2022-11-05T10:30:31.304Z,10.86
2022-11-05T10:34:40.592Z,10.92
2022-11-05T10:38:48.837Z,11.01
2022-11-05T10:43:04.629Z,11.06
2022-11-05T10:47:31.387Z,11.11
2022-11-05T10:51:39.196Z,11.11
2022-11-05T10:55:48.361Z,11.13
2022-11-05T10:59:55.711Z,11.12
2022-11-05T11:04:22.577Z,11.15
2022-11-05T11:08:31.031Z,11.19
2022-11-05T11:12:41.612Z,11.24
2022-11-05T11:16:50.839Z,11.27
2022-11-05T11:21:08.855Z,11.28
2022-11-05T11:25:27.950Z,11.28
2022-11-05T11:29:41.980Z,11.28
2022-11-05T11:33:57.247Z,11.30
2022-11-05T11:38:05.287Z,11.38
2022-11-05T11:42:24.894Z,11.50
2022-11-05T11:46:34.597Z,11.60
2022-11-05T11:50:44.532Z,11.64
2022-11-05T11:54:53.332Z,11.65
2022-11-05T11:59:05.622Z,11.65
2022-11-05T12:03:27.116Z,11.64
2022-11-05T12:07:44.819Z,11.59
2022-11-05T12:12:00.335Z,11.56
2022-11-05T12:16:13.417Z,11.56
2022-11-05T12:20:30.264Z,11.60
2022-11-05T12:24:57.542Z,11.68
2022-11-05T12:29:32.844Z,11.77
2022-11-05T12:33:51.265Z,11.81
2022-11-05T12:38:08.179Z,11.80
2022-11-05T12:42:29.020Z,11.80
2022-11-05T12:46:41.894Z,11.81
2022-11-05T12:50:54.599Z,11.85
2022-11-05T12:55:09.694Z,12.02
2022-11-05T12:59:20.923Z,12.10
2022-11-05T13:03:38.091Z,12.00
2022-11-05T13:07:51.008Z,11.98
2022-11-05T13:12:01.016Z,11.97
2022-11-05T13:16:12.289Z,12.01
2022-11-05T13:20:23.633Z,12.11
2022-11-05T13:24:36.161Z,12.13
2022-11-05T13:28:49.368Z,12.13
2022-11-05T13:33:01.608Z,12.03
2022-11-05T13:37:28.276Z,11.92
2022-11-05T13:41:45.032Z,11.90
2022-11-05T13:46:18.280Z,11.98
2022-11-05T13:51:02.524Z,12.02
2022-11-05T13:55:37.878Z,12.02
2022-11-05T13:59:58.692Z,11.93
2022-11-05T14:04:08.741Z,11.93
2022-11-05T14:08:21.382Z,11.93
2022-11-05T14:12:33.435Z,11.95
2022-11-05T14:16:52.459Z,12.03
2022-11-05T14:21:04.648Z,12.11
2022-11-05T14:26:01.098Z,12.08
2022-11-05T14:30:41.097Z,11.97
2022-11-05T14:34:55.192Z,11.84
2022-11-05T14:39:16.084Z,11.75
2022-11-05T14:43:26.906Z,11.63
2022-11-05T14:47:37.485Z,11.53
2022-11-05T14:51:47.626Z,11.42
2022-11-05T14:56:02.414Z,11.37
2022-11-05T15:00:45.049Z,11.32
2022-11-05T15:04:53.457Z,11.22
2022-11-05T15:09:22.975Z,11.15
2022-11-05T15:13:35.130Z,11.06
2022-11-05T15:17:51.752Z,10.96
2022-11-05T15:22:01.286Z,10.85
2022-11-05T15:26:14.149Z,10.77
2022-11-05T15:30:23.858Z,10.70
2022-11-05T15:34:32.671Z,10.64
2022-11-05T15:38:51.978Z,10.57
2022-11-05T15:43:16.645Z,10.47
2022-11-05T15:47:26.563Z,10.37
2022-11-05T15:51:38.039Z,10.31
2022-11-05T15:55:53.463Z,10.26
2022-11-05T16:00:02.579Z,10.23
2022-11-05T16:04:18.514Z,10.19
2022-11-05T16:08:28.509Z,10.16
2022-11-05T16:12:37.883Z,10.12
2022-11-05T16:16:52.058Z,10.09
2022-11-05T16:21:08.957Z,10.10
2022-11-05T16:25:30.481Z,10.10
2022-11-05T16:29:40.153Z,10.06
2022-11-05T16:33:48.548Z,10.00
2022-11-05T16:37:56.134Z,9.91
2022-11-05T16:42:03.849Z,9.83
2022-11-05T16:46:15.790Z,9.79
2022-11-05T16:50:26.503Z,9.76
2022-11-05T16:54:34.502Z,9.73
2022-11-05T16:58:46.895Z,9.71
2022-11-05T17:02:55.790Z,9.64
2022-11-05T17:07:03.940Z,9.57
2022-11-05T17:11:12.888Z,9.52
2022-11-05T17:15:23.488Z,9.51
2022-11-05T17:19:31.360Z,9.49
2022-11-05T17:23:39.421Z,9.45
2022-11-05T17:27:47.215Z,9.42
2022-11-05T17:31:55.244Z,9.37
2022-11-05T17:36:07.214Z,9.36
2022-11-05T17:40:20.156Z,9.39
2022-11-05T17:44:27.689Z,9.40
2022-11-05T17:48:35.825Z,9.38
2022-11-05T17:52:44.229Z,9.33
2022-11-05T17:56:52.301Z,9.26
2022-11-05T18:00:59.527Z,9.21
2022-11-05T18:05:14.196Z,9.17
2022-11-05T18:09:23.382Z,9.13
2022-11-05T18:13:31.084Z,9.05
2022-11-05T18:17:39.256Z,8.98
2022-11-05T18:21:48.460Z,8.90
2022-11-05T18:25:57.827Z,8.86
2022-11-05T18:30:08.005Z,8.82
2022-11-05T18:34:16.553Z,8.78
2022-11-05T18:38:24.723Z,8.69
2022-11-05T18:42:33.192Z,8.57
2022-11-05T18:46:57.773Z,8.48
2022-11-05T18:51:10.910Z,8.46
2022-11-05T18:55:19.190Z,8.49
2022-11-05T18:59:37.745Z,8.45
2022-11-05T19:03:49.429Z,8.36
2022-11-05T19:07:57.668Z,8.28
2022-11-05T19:12:10.346Z,8.22
2022-11-05T19:16:20.017Z,8.22
2022-11-05T19:20:29.649Z,8.22
2022-11-05T19:24:39.676Z,8.11
2022-11-05T19:28:47.595Z,8.05
2022-11-05T19:32:55.464Z,8.00
2022-11-05T19:37:06.879Z,7.97
2022-11-05T19:41:18.520Z,7.97
2022-11-05T19:49:53.655Z,7.96
2022-11-05T19:54:01.805Z,7.93
2022-11-05T19:58:11.128Z,7.90
2022-11-05T20:02:20.442Z,7.90
2022-11-05T20:06:32.063Z,7.85
2022-11-05T20:10:41.289Z,7.79
2022-11-05T20:14:49.370Z,7.72
2022-11-05T20:18:58.742Z,7.64
2022-11-05T20:23:35.190Z,7.54
2022-11-05T20:27:45.282Z,7.47
2022-11-05T20:31:53.988Z,7.38
2022-11-05T20:36:09.167Z,7.27
2022-11-05T20:40:17.734Z,7.08
2022-11-05T20:44:25.721Z,6.92
2022-11-05T20:48:35.372Z,6.85
2022-11-05T20:52:42.929Z,6.78
2022-11-05T20:56:50.406Z,6.75
2022-11-05T21:00:59.320Z,6.77
2022-11-05T21:05:08.407Z,6.74
2022-11-05T21:09:16.884Z,6.70
2022-11-05T21:13:25.049Z,6.65
2022-11-05T21:17:32.494Z,6.58
2022-11-05T21:21:41.411Z,6.50
2022-11-05T21:25:49.351Z,6.47
2022-11-05T21:29:57.081Z,6.43
2022-11-05T21:34:07.383Z,6.35
2022-11-05T21:38:17.314Z,6.32
2022-11-05T21:42:24.978Z,6.27
2022-11-05T21:46:32.669Z,6.20
2022-11-05T21:51:01.117Z,6.14
2022-11-05T21:55:28.195Z,6.15
2022-11-05T21:59:52.422Z,6.18
2022-11-05T22:04:03.030Z,6.18
2022-11-05T22:08:11.976Z,6.17
2022-11-05T22:12:20.081Z,6.11
2022-11-05T22:16:27.506Z,5.95
2022-11-05T22:20:35.315Z,5.86
2022-11-05T22:24:43.412Z,5.83
2022-11-05T22:28:51.220Z,5.84
2022-11-05T22:32:58.918Z,5.83
2022-11-05T22:37:06.559Z,5.79
2022-11-05T22:41:17.569Z,5.75
2022-11-05T22:45:25.324Z,5.69
2022-11-05T22:49:33.335Z,5.62
2022-11-05T22:53:41.804Z,5.61
2022-11-05T22:57:49.164Z,5.64
2022-11-05T23:01:57.098Z,5.64
2022-11-05T23:06:07.730Z,5.60
2022-11-05T23:10:32.969Z,5.52
2022-11-05T23:14:41.338Z,5.41
2022-11-05T23:19:06.214Z,5.36
2022-11-05T23:23:32.268Z,5.36
2022-11-05T23:27:42.160Z,5.39
2022-11-05T23:32:08.124Z,5.41
2022-11-05T23:36:34.575Z,5.42
2022-11-05T23:40:56.109Z,5.42
2022-11-05T23:45:21.341Z,5.40
2022-11-05T23:49:30.484Z,5.41
2022-11-05T23:53:41.658Z,5.46
2022-11-05T23:57:49.304Z,5.48
